sensor_id;sensor_type;location;lat;lon;timestamp;temperature;humidity
23609;DHT22;11982;50.810;4.442;2022-09-25T00:00:35;12.50;99.90
23609;DHT22;11982;50.810;4.442;2022-09-25T00:03:01;12.60;99.90
23609;DHT22;11982;50.810;4.442;2022-09-25T00:05:27;12.60;99.90
23609;DHT22;11982;50.810;4.442;2022-09-25T00:07:52;12.50;99.90
23609;DHT22;11982;50.810;4.442;2022-09-25T00:10:22;12.50;99.90
23609;DHT22;11982;50.810;4.442;2022-09-25T00:12:50;12.50;99.90
23609;DHT22;11982;50.810;4.442;2022-09-25T00:15:16;12.50;99.90
23609;DHT22;11982;50.810;4.442;2022-09-25T00:17:42;12.40;99.90
23609;DHT22;11982;50.810;4.442;2022-09-25T00:20:08;12.40;99.90
23609;DHT22;11982;50.810;4.442;2022-09-25T00:22:34;12.40;99.90
23609;DHT22;11982;50.810;4.442;2022-09-25T00:25:00;12.40;99.90
23609;DHT22;11982;50.810;4.442;2022-09-25T00:27:27;12.40;99.90
23609;DHT22;11982;50.810;4.442;2022-09-25T00:29:52;12.40;99.90
23609;DHT22;11982;50.810;4.442;2022-09-25T00:32:18;12.30;99.90
23609;DHT22;11982;50.810;4.442;2022-09-25T00:34:44;12.40;99.90
23609;DHT22;11982;50.810;4.442;2022-09-25T00:37:09;12.40;99.90
23609;DHT22;11982;50.810;4.442;2022-09-25T00:39:35;12.40;99.90
23609;DHT22;11982;50.810;4.442;2022-09-25T00:42:00;12.40;99.90
23609;DHT22;11982;50.810;4.442;2022-09-25T00:47:12;12.40;99.90
23609;DHT22;11982;50.810;4.442;2022-09-25T00:49:39;12.30;99.90
23609;DHT22;11982;50.810;4.442;2022-09-25T00:52:08;12.30;99.90
23609;DHT22;11982;50.810;4.442;2022-09-25T00:54:40;12.20;99.90
23609;DHT22;11982;50.810;4.442;2022-09-25T00:57:10;12.20;99.90
23609;DHT22;11982;50.810;4.442;2022-09-25T00:59:40;12.20;99.90
23609;DHT22;11982;50.810;4.442;2022-09-25T01:02:10;12.20;99.90
23609;DHT22;11982;50.810;4.442;2022-09-25T01:04:39;12.20;99.90
23609;DHT22;11982;50.810;4.442;2022-09-25T01:07:06;12.40;99.90
23609;DHT22;11982;50.810;4.442;2022-09-25T01:09:34;12.40;99.90
23609;DHT22;11982;50.810;4.442;2022-09-25T01:12:00;12.30;99.90
23609;DHT22;11982;50.810;4.442;2022-09-25T01:14:26;12.30;99.90
23609;DHT22;11982;50.810;4.442;2022-09-25T01:17:09;12.20;99.90
23609;DHT22;11982;50.810;4.442;2022-09-25T01:35:01;12.20;99.90
23609;DHT22;11982;50.810;4.442;2022-09-25T01:37:41;12.10;99.90
23609;DHT22;11982;50.810;4.442;2022-09-25T01:42:58;12.00;99.90
23609;DHT22;11982;50.810;4.442;2022-09-25T01:45:36;12.00;99.90
23609;DHT22;11982;50.810;4.442;2022-09-25T01:48:07;12.10;99.90
23609;DHT22;11982;50.810;4.442;2022-09-25T01:50:46;12.10;99.90
23609;DHT22;11982;50.810;4.442;2022-09-25T01:53:17;12.10;99.90
23609;DHT22;11982;50.810;4.442;2022-09-25T01:55:47;12.00;99.90
23609;DHT22;11982;50.810;4.442;2022-09-25T01:58:27;12.00;99.90
23609;DHT22;11982;50.810;4.442;2022-09-25T02:01:01;11.90;99.90
23609;DHT22;11982;50.810;4.442;2022-09-25T02:03:40;11.90;99.90
23609;DHT22;11982;50.810;4.442;2022-09-25T02:06:11;11.90;99.90
23609;DHT22;11982;50.810;4.442;2022-09-25T02:08:45;11.80;99.90
23609;DHT22;11982;50.810;4.442;2022-09-25T02:11:12;11.90;99.90
23609;DHT22;11982;50.810;4.442;2022-09-25T02:13:55;11.90;99.90
23609;DHT22;11982;50.810;4.442;2022-09-25T02:16:34;11.80;99.90
23609;DHT22;11982;50.810;4.442;2022-09-25T02:19:00;11.70;99.90
23609;DHT22;11982;50.810;4.442;2022-09-25T02:22:04;11.70;99.90
23609;DHT22;11982;50.810;4.442;2022-09-25T02:27:11;11.60;99.90
23609;DHT22;11982;50.810;4.442;2022-09-25T02:29:37;11.60;99.90
23609;DHT22;11982;50.810;4.442;2022-09-25T02:32:14;11.60;99.90
23609;DHT22;11982;50.810;4.442;2022-09-25T02:34:41;11.50;99.90
23609;DHT22;11982;50.810;4.442;2022-09-25T02:37:11;11.50;99.90
23609;DHT22;11982;50.810;4.442;2022-09-25T02:39:37;11.60;99.90
23609;DHT22;11982;50.810;4.442;2022-09-25T02:50:53;11.40;99.90
23609;DHT22;11982;50.810;4.442;2022-09-25T02:53:35;11.30;99.90
23609;DHT22;11982;50.810;4.442;2022-09-25T02:56:08;11.20;99.90
23609;DHT22;11982;50.810;4.442;2022-09-25T02:58:49;11.20;99.90
23609;DHT22;11982;50.810;4.442;2022-09-25T03:01:18;11.10;99.90
23609;DHT22;11982;50.810;4.442;2022-09-25T03:03:47;11.10;99.90
23609;DHT22;11982;50.810;4.442;2022-09-25T03:06:14;11.20;99.90
23609;DHT22;11982;50.810;4.442;2022-09-25T03:08:44;11.30;99.90
23609;DHT22;11982;50.810;4.442;2022-09-25T03:11:13;11.30;99.90
23609;DHT22;11982;50.810;4.442;2022-09-25T03:13:40;11.30;99.90
23609;DHT22;11982;50.810;4.442;2022-09-25T03:18:33;11.30;99.90
23609;DHT22;11982;50.810;4.442;2022-09-25T03:20:59;11.20;99.90
23609;DHT22;11982;50.810;4.442;2022-09-25T03:23:25;11.10;99.90
23609;DHT22;11982;50.810;4.442;2022-09-25T03:25:53;11.10;99.90
23609;DHT22;11982;50.810;4.442;2022-09-25T03:28:20;11.10;99.90
23609;DHT22;11982;50.810;4.442;2022-09-25T03:31:04;11.10;99.90
23609;DHT22;11982;50.810;4.442;2022-09-25T03:33:34;11.10;99.90
23609;DHT22;11982;50.810;4.442;2022-09-25T03:36:14;11.00;99.90
23609;DHT22;11982;50.810;4.442;2022-09-25T03:38:44;10.90;99.90
23609;DHT22;11982;50.810;4.442;2022-09-25T03:41:11;10.80;99.90
23609;DHT22;11982;50.810;4.442;2022-09-25T03:43:41;10.70;99.90
23609;DHT22;11982;50.810;4.442;2022-09-25T03:46:09;10.70;99.90
23609;DHT22;11982;50.810;4.442;2022-09-25T03:48:36;10.70;99.90
23609;DHT22;11982;50.810;4.442;2022-09-25T03:51:02;10.60;99.90
23609;DHT22;11982;50.810;4.442;2022-09-25T03:53:29;10.60;99.90
23609;DHT22;11982;50.810;4.442;2022-09-25T03:55:59;10.50;99.90
23609;DHT22;11982;50.810;4.442;2022-09-25T03:58:25;10.50;99.90
23609;DHT22;11982;50.810;4.442;2022-09-25T04:00:51;10.50;99.90
23609;DHT22;11982;50.810;4.442;2022-09-25T04:03:16;10.60;99.90
23609;DHT22;11982;50.810;4.442;2022-09-25T04:05:42;10.70;99.90
23609;DHT22;11982;50.810;4.442;2022-09-25T04:08:09;10.60;99.90
23609;DHT22;11982;50.810;4.442;2022-09-25T04:10:35;10.50;99.90
23609;DHT22;11982;50.810;4.442;2022-09-25T04:13:04;10.40;99.90
23609;DHT22;11982;50.810;4.442;2022-09-25T04:15:30;10.50;99.90
23609;DHT22;11982;50.810;4.442;2022-09-25T04:17:56;10.50;99.90
23609;DHT22;11982;50.810;4.442;2022-09-25T04:20:22;10.30;99.90
23609;DHT22;11982;50.810;4.442;2022-09-25T04:22:48;10.20;99.90
23609;DHT22;11982;50.810;4.442;2022-09-25T04:25:14;10.10;99.90
23609;DHT22;11982;50.810;4.442;2022-09-25T04:27:39;10.10;99.90
23609;DHT22;11982;50.810;4.442;2022-09-25T04:30:06;10.10;99.90
23609;DHT22;11982;50.810;4.442;2022-09-25T04:32:32;10.20;99.90
23609;DHT22;11982;50.810;4.442;2022-09-25T04:35:16;10.30;99.90
23609;DHT22;11982;50.810;4.442;2022-09-25T04:37:42;10.30;99.90
23609;DHT22;11982;50.810;4.442;2022-09-25T04:40:08;10.20;99.90
23609;DHT22;11982;50.810;4.442;2022-09-25T04:42:33;10.20;99.90
23609;DHT22;11982;50.810;4.442;2022-09-25T04:44:59;10.20;99.90
23609;DHT22;11982;50.810;4.442;2022-09-25T04:47:26;10.10;99.90
23609;DHT22;11982;50.810;4.442;2022-09-25T04:49:54;10.10;99.90
23609;DHT22;11982;50.810;4.442;2022-09-25T04:52:20;10.10;99.90
23609;DHT22;11982;50.810;4.442;2022-09-25T04:54:46;10.10;99.90
23609;DHT22;11982;50.810;4.442;2022-09-25T04:57:17;10.00;99.90
23609;DHT22;11982;50.810;4.442;2022-09-25T04:59:43;10.00;99.90
23609;DHT22;11982;50.810;4.442;2022-09-25T05:02:10;9.90;99.90
23609;DHT22;11982;50.810;4.442;2022-09-25T05:04:35;10.00;99.90
23609;DHT22;11982;50.810;4.442;2022-09-25T05:07:01;10.10;99.90
23609;DHT22;11982;50.810;4.442;2022-09-25T05:09:27;10.00;99.90
23609;DHT22;11982;50.810;4.442;2022-09-25T05:11:52;10.00;99.90
23609;DHT22;11982;50.810;4.442;2022-09-25T05:14:18;10.00;99.90
23609;DHT22;11982;50.810;4.442;2022-09-25T05:16:45;10.10;99.90
23609;DHT22;11982;50.810;4.442;2022-09-25T05:19:11;10.20;99.90
23609;DHT22;11982;50.810;4.442;2022-09-25T05:21:37;10.30;99.90
23609;DHT22;11982;50.810;4.442;2022-09-25T05:24:03;10.20;99.90
23609;DHT22;11982;50.810;4.442;2022-09-25T05:26:28;10.10;99.90
23609;DHT22;11982;50.810;4.442;2022-09-25T05:28:54;9.90;99.90
23609;DHT22;11982;50.810;4.442;2022-09-25T05:31:20;9.90;99.90
23609;DHT22;11982;50.810;4.442;2022-09-25T05:33:46;9.90;99.90
23609;DHT22;11982;50.810;4.442;2022-09-25T05:36:12;9.90;99.90
23609;DHT22;11982;50.810;4.442;2022-09-25T05:38:39;10.00;99.90
23609;DHT22;11982;50.810;4.442;2022-09-25T05:41:09;10.00;99.90
23609;DHT22;11982;50.810;4.442;2022-09-25T05:43:40;10.00;99.90
23609;DHT22;11982;50.810;4.442;2022-09-25T05:46:06;10.00;99.90
23609;DHT22;11982;50.810;4.442;2022-09-25T05:48:32;10.00;99.90
23609;DHT22;11982;50.810;4.442;2022-09-25T05:50:57;9.90;99.90
23609;DHT22;11982;50.810;4.442;2022-09-25T05:53:24;9.90;99.90
23609;DHT22;11982;50.810;4.442;2022-09-25T05:55:54;9.90;99.90
23609;DHT22;11982;50.810;4.442;2022-09-25T05:58:21;9.80;99.90
23609;DHT22;11982;50.810;4.442;2022-09-25T06:00:47;9.90;99.90
23609;DHT22;11982;50.810;4.442;2022-09-25T06:03:13;9.70;99.90
23609;DHT22;11982;50.810;4.442;2022-09-25T06:05:39;9.60;99.90
23609;DHT22;11982;50.810;4.442;2022-09-25T06:08:06;9.60;99.90
23609;DHT22;11982;50.810;4.442;2022-09-25T06:10:32;9.70;99.90
23609;DHT22;11982;50.810;4.442;2022-09-25T06:13:00;9.80;99.90
23609;DHT22;11982;50.810;4.442;2022-09-25T06:15:27;9.80;99.90
23609;DHT22;11982;50.810;4.442;2022-09-25T06:17:53;9.80;99.90
23609;DHT22;11982;50.810;4.442;2022-09-25T06:20:19;9.70;99.90
23609;DHT22;11982;50.810;4.442;2022-09-25T06:22:53;9.70;99.90
23609;DHT22;11982;50.810;4.442;2022-09-25T06:25:23;9.80;99.90
23609;DHT22;11982;50.810;4.442;2022-09-25T06:27:54;9.80;99.90
23609;DHT22;11982;50.810;4.442;2022-09-25T06:30:21;9.80;99.90
23609;DHT22;11982;50.810;4.442;2022-09-25T06:32:48;9.90;99.90
23609;DHT22;11982;50.810;4.442;2022-09-25T06:35:15;10.00;99.90
23609;DHT22;11982;50.810;4.442;2022-09-25T06:37:41;10.10;99.90
23609;DHT22;11982;50.810;4.442;2022-09-25T06:40:07;10.10;99.90
23609;DHT22;11982;50.810;4.442;2022-09-25T06:42:33;10.00;99.90
23609;DHT22;11982;50.810;4.442;2022-09-25T06:45:00;10.10;99.90
23609;DHT22;11982;50.810;4.442;2022-09-25T06:47:26;10.20;99.90
23609;DHT22;11982;50.810;4.442;2022-09-25T06:49:51;10.20;99.90
23609;DHT22;11982;50.810;4.442;2022-09-25T06:52:17;10.40;99.90
23609;DHT22;11982;50.810;4.442;2022-09-25T06:54:42;10.40;99.90
23609;DHT22;11982;50.810;4.442;2022-09-25T06:57:08;10.50;99.90
23609;DHT22;11982;50.810;4.442;2022-09-25T06:59:35;10.70;99.90
23609;DHT22;11982;50.810;4.442;2022-09-25T07:02:00;10.60;99.90
23609;DHT22;11982;50.810;4.442;2022-09-25T07:04:46;10.70;99.90
23609;DHT22;11982;50.810;4.442;2022-09-25T07:07:19;10.80;99.90
23609;DHT22;11982;50.810;4.442;2022-09-25T07:09:46;11.00;99.90
23609;DHT22;11982;50.810;4.442;2022-09-25T07:12:15;11.10;99.90
23609;DHT22;11982;50.810;4.442;2022-09-25T07:14:43;11.20;99.90
23609;DHT22;11982;50.810;4.442;2022-09-25T07:17:12;11.40;99.90
23609;DHT22;11982;50.810;4.442;2022-09-25T07:19:37;11.50;99.90
23609;DHT22;11982;50.810;4.442;2022-09-25T07:22:03;11.60;99.90
23609;DHT22;11982;50.810;4.442;2022-09-25T07:24:29;11.70;99.90
23609;DHT22;11982;50.810;4.442;2022-09-25T07:26:55;11.70;99.90
23609;DHT22;11982;50.810;4.442;2022-09-25T07:29:21;11.80;99.90
23609;DHT22;11982;50.810;4.442;2022-09-25T07:31:46;11.90;99.90
23609;DHT22;11982;50.810;4.442;2022-09-25T07:34:12;11.90;99.90
23609;DHT22;11982;50.810;4.442;2022-09-25T07:36:39;11.90;99.90
23609;DHT22;11982;50.810;4.442;2022-09-25T07:39:07;11.80;99.90
23609;DHT22;11982;50.810;4.442;2022-09-25T07:41:33;11.90;99.90
23609;DHT22;11982;50.810;4.442;2022-09-25T07:43:59;11.90;99.90
23609;DHT22;11982;50.810;4.442;2022-09-25T07:46:26;11.90;99.90
23609;DHT22;11982;50.810;4.442;2022-09-25T07:48:51;11.80;99.90
23609;DHT22;11982;50.810;4.442;2022-09-25T07:51:17;12.00;99.90
23609;DHT22;11982;50.810;4.442;2022-09-25T07:53:44;12.10;99.90
23609;DHT22;11982;50.810;4.442;2022-09-25T07:56:13;12.10;99.90
23609;DHT22;11982;50.810;4.442;2022-09-25T07:58:39;12.10;99.90
23609;DHT22;11982;50.810;4.442;2022-09-25T08:01:07;12.20;99.90
23609;DHT22;11982;50.810;4.442;2022-09-25T08:03:34;12.30;99.90
23609;DHT22;11982;50.810;4.442;2022-09-25T08:06:04;12.20;99.90
23609;DHT22;11982;50.810;4.442;2022-09-25T08:08:33;12.20;99.90
23609;DHT22;11982;50.810;4.442;2022-09-25T08:11:03;12.20;99.90
23609;DHT22;11982;50.810;4.442;2022-09-25T08:13:32;12.30;99.90
23609;DHT22;11982;50.810;4.442;2022-09-25T08:16:00;12.40;99.90
23609;DHT22;11982;50.810;4.442;2022-09-25T08:18:26;12.40;99.90
23609;DHT22;11982;50.810;4.442;2022-09-25T08:20:51;12.40;99.90
23609;DHT22;11982;50.810;4.442;2022-09-25T08:23:17;12.40;99.90
23609;DHT22;11982;50.810;4.442;2022-09-25T08:25:46;12.40;99.90
23609;DHT22;11982;50.810;4.442;2022-09-25T08:28:13;12.40;99.90
23609;DHT22;11982;50.810;4.442;2022-09-25T08:30:39;12.60;99.90
23609;DHT22;11982;50.810;4.442;2022-09-25T08:33:09;12.60;99.90
23609;DHT22;11982;50.810;4.442;2022-09-25T08:35:36;12.70;99.90
23609;DHT22;11982;50.810;4.442;2022-09-25T08:38:03;12.70;99.90
23609;DHT22;11982;50.810;4.442;2022-09-25T08:40:29;12.70;99.90
23609;DHT22;11982;50.810;4.442;2022-09-25T08:42:56;12.70;99.90
23609;DHT22;11982;50.810;4.442;2022-09-25T08:45:44;12.70;99.90
23609;DHT22;11982;50.810;4.442;2022-09-25T08:48:32;12.80;99.90
23609;DHT22;11982;50.810;4.442;2022-09-25T08:51:19;12.80;99.90
23609;DHT22;11982;50.810;4.442;2022-09-25T08:53:44;12.90;99.90
23609;DHT22;11982;50.810;4.442;2022-09-25T08:56:14;12.90;99.90
23609;DHT22;11982;50.810;4.442;2022-09-25T09:01:22;13.10;99.90
23609;DHT22;11982;50.810;4.442;2022-09-25T09:04:12;13.10;99.90
23609;DHT22;11982;50.810;4.442;2022-09-25T09:06:40;13.20;99.90
23609;DHT22;11982;50.810;4.442;2022-09-25T09:09:20;13.40;99.90
23609;DHT22;11982;50.810;4.442;2022-09-25T09:11:51;13.50;99.90
23609;DHT22;11982;50.810;4.442;2022-09-25T09:14:20;13.60;99.90
23609;DHT22;11982;50.810;4.442;2022-09-25T09:16:58;13.70;99.90
23609;DHT22;11982;50.810;4.442;2022-09-25T09:19:24;13.80;99.90
23609;DHT22;11982;50.810;4.442;2022-09-25T09:27:37;13.90;99.90
23609;DHT22;11982;50.810;4.442;2022-09-25T09:30:17;14.00;99.90
23609;DHT22;11982;50.810;4.442;2022-09-25T09:32:48;14.10;99.90
23609;DHT22;11982;50.810;4.442;2022-09-25T09:38:23;14.40;99.90
23609;DHT22;11982;50.810;4.442;2022-09-25T09:41:07;14.50;99.90
23609;DHT22;11982;50.810;4.442;2022-09-25T09:51:44;14.80;99.90
23609;DHT22;11982;50.810;4.442;2022-09-25T09:54:16;14.90;99.90
23609;DHT22;11982;50.810;4.442;2022-09-25T09:56:46;15.10;99.90
23609;DHT22;11982;50.810;4.442;2022-09-25T09:59:15;15.20;99.90
23609;DHT22;11982;50.810;4.442;2022-09-25T10:01:43;15.30;99.90
23609;DHT22;11982;50.810;4.442;2022-09-25T10:04:13;15.30;99.90
23609;DHT22;11982;50.810;4.442;2022-09-25T10:06:56;15.20;99.90
23609;DHT22;11982;50.810;4.442;2022-09-25T10:09:22;15.30;99.90
23609;DHT22;11982;50.810;4.442;2022-09-25T10:12:04;15.50;99.90
23609;DHT22;11982;50.810;4.442;2022-09-25T10:14:36;15.70;99.90
23609;DHT22;11982;50.810;4.442;2022-09-25T10:17:03;15.80;99.90
23609;DHT22;11982;50.810;4.442;2022-09-25T10:19:56;16.00;99.90
23609;DHT22;11982;50.810;4.442;2022-09-25T10:22:26;16.10;99.90
23609;DHT22;11982;50.810;4.442;2022-09-25T10:25:00;16.30;99.90
23609;DHT22;11982;50.810;4.442;2022-09-25T10:35:27;16.90;99.90
23609;DHT22;11982;50.810;4.442;2022-09-25T10:37:55;16.70;99.90
23609;DHT22;11982;50.810;4.442;2022-09-25T10:40:38;16.60;99.90
23609;DHT22;11982;50.810;4.442;2022-09-25T10:43:16;16.50;99.90
23609;DHT22;11982;50.810;4.442;2022-09-25T10:45:42;16.80;99.90
23609;DHT22;11982;50.810;4.442;2022-09-25T10:48:40;17.10;99.90
23609;DHT22;11982;50.810;4.442;2022-09-25T10:51:25;17.10;99.90
23609;DHT22;11982;50.810;4.442;2022-09-25T10:54:12;16.90;99.90
23609;DHT22;11982;50.810;4.442;2022-09-25T10:56:38;16.80;99.90
23609;DHT22;11982;50.810;4.442;2022-09-25T10:59:19;16.90;99.90
23609;DHT22;11982;50.810;4.442;2022-09-25T11:01:46;17.20;99.90
23609;DHT22;11982;50.810;4.442;2022-09-25T11:04:21;17.40;99.90
23609;DHT22;11982;50.810;4.442;2022-09-25T11:07:00;17.40;99.90
23609;DHT22;11982;50.810;4.442;2022-09-25T11:09:28;17.40;99.90
23609;DHT22;11982;50.810;4.442;2022-09-25T11:12:16;17.50;99.90
23609;DHT22;11982;50.810;4.442;2022-09-25T11:14:52;17.60;99.90
23609;DHT22;11982;50.810;4.442;2022-09-25T11:17:32;17.40;99.90
23609;DHT22;11982;50.810;4.442;2022-09-25T11:22:48;17.10;99.90
23609;DHT22;11982;50.810;4.442;2022-09-25T11:25:19;17.30;99.90
23609;DHT22;11982;50.810;4.442;2022-09-25T11:27:48;17.50;99.90
23609;DHT22;11982;50.810;4.442;2022-09-25T11:30:17;17.50;99.90
23609;DHT22;11982;50.810;4.442;2022-09-25T11:41:38;18.30;99.90
23609;DHT22;11982;50.810;4.442;2022-09-25T11:49:52;18.20;99.90
23609;DHT22;11982;50.810;4.442;2022-09-25T11:55:35;17.70;99.90
23609;DHT22;11982;50.810;4.442;2022-09-25T11:58:21;17.70;99.90
23609;DHT22;11982;50.810;4.442;2022-09-25T12:01:05;18.00;99.90
23609;DHT22;11982;50.810;4.442;2022-09-25T12:06:18;18.10;99.90
23609;DHT22;11982;50.810;4.442;2022-09-25T12:19:44;16.90;99.90
23609;DHT22;11982;50.810;4.442;2022-09-25T12:22:15;16.60;99.90
23609;DHT22;11982;50.810;4.442;2022-09-25T12:27:42;16.80;99.90
23609;DHT22;11982;50.810;4.442;2022-09-25T12:30:18;17.00;99.90
23609;DHT22;11982;50.810;4.442;2022-09-25T12:35:48;17.50;99.90
23609;DHT22;11982;50.810;4.442;2022-09-25T12:41:14;17.70;99.90
23609;DHT22;11982;50.810;4.442;2022-09-25T12:46:35;17.70;99.90
23609;DHT22;11982;50.810;4.442;2022-09-25T12:51:49;17.20;99.90
23609;DHT22;11982;50.810;4.442;2022-09-25T12:59:20;16.90;99.90
23609;DHT22;11982;50.810;4.442;2022-09-25T13:01:57;17.30;99.90
23609;DHT22;11982;50.810;4.442;2022-09-25T13:09:54;17.30;99.90
23609;DHT22;11982;50.810;4.442;2022-09-25T13:14:53;17.10;99.90
23609;DHT22;11982;50.810;4.442;2022-09-25T13:17:21;17.30;99.90
23609;DHT22;11982;50.810;4.442;2022-09-25T13:19:47;17.10;99.90
23609;DHT22;11982;50.810;4.442;2022-09-25T13:22:23;16.90;99.90
23609;DHT22;11982;50.810;4.442;2022-09-25T13:25:11;17.00;99.90
23609;DHT22;11982;50.810;4.442;2022-09-25T13:27:41;16.80;99.90
23609;DHT22;11982;50.810;4.442;2022-09-25T13:30:39;17.00;99.90
23609;DHT22;11982;50.810;4.442;2022-09-25T13:33:21;17.10;99.90
23609;DHT22;11982;50.810;4.442;2022-09-25T13:35:47;17.20;99.90
23609;DHT22;11982;50.810;4.442;2022-09-25T13:38:17;17.40;99.90
23609;DHT22;11982;50.810;4.442;2022-09-25T13:41:11;17.30;99.90
23609;DHT22;11982;50.810;4.442;2022-09-25T13:43:37;17.50;99.90
23609;DHT22;11982;50.810;4.442;2022-09-25T13:48:42;17.20;99.90
23609;DHT22;11982;50.810;4.442;2022-09-25T13:54:05;16.90;99.90
23609;DHT22;11982;50.810;4.442;2022-09-25T13:56:49;17.10;99.90
23609;DHT22;11982;50.810;4.442;2022-09-25T13:59:23;17.30;99.90
23609;DHT22;11982;50.810;4.442;2022-09-25T14:01:56;17.30;99.90
23609;DHT22;11982;50.810;4.442;2022-09-25T14:04:35;17.30;99.90
23609;DHT22;11982;50.810;4.442;2022-09-25T14:09:41;17.60;99.90
23609;DHT22;11982;50.810;4.442;2022-09-25T14:12:20;17.70;99.90
23609;DHT22;11982;50.810;4.442;2022-09-25T14:14:52;18.10;99.90
23609;DHT22;11982;50.810;4.442;2022-09-25T14:17:22;18.20;99.90
23609;DHT22;11982;50.810;4.442;2022-09-25T14:19:50;18.30;99.90
23609;DHT22;11982;50.810;4.442;2022-09-25T14:22:50;18.30;99.90
23609;DHT22;11982;50.810;4.442;2022-09-25T14:25:35;18.60;99.90
23609;DHT22;11982;50.810;4.442;2022-09-25T14:28:20;19.00;99.90
23609;DHT22;11982;50.810;4.442;2022-09-25T14:33:54;18.80;99.90
23609;DHT22;11982;50.810;4.442;2022-09-25T14:36:49;18.50;99.90
23609;DHT22;11982;50.810;4.442;2022-09-25T14:47:31;18.30;99.90
23609;DHT22;11982;50.810;4.442;2022-09-25T14:49:58;18.40;99.90
23609;DHT22;11982;50.810;4.442;2022-09-25T14:52:27;18.20;99.90
23609;DHT22;11982;50.810;4.442;2022-09-25T14:54:55;18.10;99.90
23609;DHT22;11982;50.810;4.442;2022-09-25T14:57:26;18.20;99.90
23609;DHT22;11982;50.810;4.442;2022-09-25T14:59:56;18.20;99.90
23609;DHT22;11982;50.810;4.442;2022-09-25T15:02:39;18.10;99.90
23609;DHT22;11982;50.810;4.442;2022-09-25T15:07:44;17.90;99.90
23609;DHT22;11982;50.810;4.442;2022-09-25T15:10:33;17.70;99.90
23609;DHT22;11982;50.810;4.442;2022-09-25T15:13:15;17.60;99.90
23609;DHT22;11982;50.810;4.442;2022-09-25T15:15:44;17.40;99.90
23609;DHT22;11982;50.810;4.442;2022-09-25T15:18:30;17.00;99.90
23609;DHT22;11982;50.810;4.442;2022-09-25T15:20:56;16.80;99.90
23609;DHT22;11982;50.810;4.442;2022-09-25T15:23:23;17.10;99.90
23609;DHT22;11982;50.810;4.442;2022-09-25T15:25:51;17.30;99.90
23609;DHT22;11982;50.810;4.442;2022-09-25T15:28:21;17.40;99.90
23609;DHT22;11982;50.810;4.442;2022-09-25T15:30:57;17.60;99.90
23609;DHT22;11982;50.810;4.442;2022-09-25T15:33:29;17.40;99.90
23609;DHT22;11982;50.810;4.442;2022-09-25T15:36:00;17.40;99.90
23609;DHT22;11982;50.810;4.442;2022-09-25T15:38:30;17.30;99.90
23609;DHT22;11982;50.810;4.442;2022-09-25T15:40:56;17.60;99.90
23609;DHT22;11982;50.810;4.442;2022-09-25T15:43:23;17.40;99.90
23609;DHT22;11982;50.810;4.442;2022-09-25T15:48:56;17.20;99.90
23609;DHT22;11982;50.810;4.442;2022-09-25T15:51:26;17.50;99.90
23609;DHT22;11982;50.810;4.442;2022-09-25T15:53:58;17.20;99.90
23609;DHT22;11982;50.810;4.442;2022-09-25T15:56:30;17.10;99.90
23609;DHT22;11982;50.810;4.442;2022-09-25T15:59:05;17.20;99.90
23609;DHT22;11982;50.810;4.442;2022-09-25T16:01:40;17.30;99.90
23609;DHT22;11982;50.810;4.442;2022-09-25T16:04:39;17.40;99.90
23609;DHT22;11982;50.810;4.442;2022-09-25T16:07:33;17.50;99.90
23609;DHT22;11982;50.810;4.442;2022-09-25T16:20:36;16.60;99.90
23609;DHT22;11982;50.810;4.442;2022-09-25T16:23:06;16.60;99.90
23609;DHT22;11982;50.810;4.442;2022-09-25T16:25:32;16.80;99.90
23609;DHT22;11982;50.810;4.442;2022-09-25T16:28:05;16.70;99.90
23609;DHT22;11982;50.810;4.442;2022-09-25T16:30:33;16.50;99.90
23609;DHT22;11982;50.810;4.442;2022-09-25T16:35:46;16.20;99.90
23609;DHT22;11982;50.810;4.442;2022-09-25T16:38:33;16.10;99.90
23609;DHT22;11982;50.810;4.442;2022-09-25T16:43:36;15.70;99.90
23609;DHT22;11982;50.810;4.442;2022-09-25T16:46:16;15.60;99.90
23609;DHT22;11982;50.810;4.442;2022-09-25T16:48:45;15.40;99.90
23609;DHT22;11982;50.810;4.442;2022-09-25T16:51:22;15.50;99.90
23609;DHT22;11982;50.810;4.442;2022-09-25T16:53:51;15.30;99.90
23609;DHT22;11982;50.810;4.442;2022-09-25T16:56:28;15.20;99.90
23609;DHT22;11982;50.810;4.442;2022-09-25T16:58:55;15.20;99.90
23609;DHT22;11982;50.810;4.442;2022-09-25T17:01:23;15.10;99.90
23609;DHT22;11982;50.810;4.442;2022-09-25T17:03:49;15.10;99.90
23609;DHT22;11982;50.810;4.442;2022-09-25T17:06:19;14.90;99.90
23609;DHT22;11982;50.810;4.442;2022-09-25T17:08:45;14.80;99.90
23609;DHT22;11982;50.810;4.442;2022-09-25T17:11:12;14.70;99.90
23609;DHT22;11982;50.810;4.442;2022-09-25T17:13:38;14.60;99.90
23609;DHT22;11982;50.810;4.442;2022-09-25T17:16:05;14.50;99.90
23609;DHT22;11982;50.810;4.442;2022-09-25T17:18:31;14.60;99.90
23609;DHT22;11982;50.810;4.442;2022-09-25T17:20:58;14.70;99.90
23609;DHT22;11982;50.810;4.442;2022-09-25T17:23:25;14.70;99.90
23609;DHT22;11982;50.810;4.442;2022-09-25T17:26:03;14.80;99.90
23609;DHT22;11982;50.810;4.442;2022-09-25T17:28:29;14.80;99.90
23609;DHT22;11982;50.810;4.442;2022-09-25T17:30:57;14.70;99.90
23609;DHT22;11982;50.810;4.442;2022-09-25T17:33:24;14.80;99.90
23609;DHT22;11982;50.810;4.442;2022-09-25T17:36:01;15.00;99.90
23609;DHT22;11982;50.810;4.442;2022-09-25T17:38:31;14.90;99.90
23609;DHT22;11982;50.810;4.442;2022-09-25T17:41:00;14.90;99.90
23609;DHT22;11982;50.810;4.442;2022-09-25T17:43:25;15.00;99.90
23609;DHT22;11982;50.810;4.442;2022-09-25T17:45:53;15.00;99.90
23609;DHT22;11982;50.810;4.442;2022-09-25T17:48:25;14.90;99.90
23609;DHT22;11982;50.810;4.442;2022-09-25T17:51:01;14.80;99.90
23609;DHT22;11982;50.810;4.442;2022-09-25T17:53:32;14.70;99.90
23609;DHT22;11982;50.810;4.442;2022-09-25T17:55:59;14.90;99.90
23609;DHT22;11982;50.810;4.442;2022-09-25T17:58:26;14.70;99.90
23609;DHT22;11982;50.810;4.442;2022-09-25T18:00:53;14.70;99.90
23609;DHT22;11982;50.810;4.442;2022-09-25T18:03:19;14.60;99.90
23609;DHT22;11982;50.810;4.442;2022-09-25T18:05:45;14.50;99.90
23609;DHT22;11982;50.810;4.442;2022-09-25T18:08:12;14.40;99.90
23609;DHT22;11982;50.810;4.442;2022-09-25T18:10:38;14.20;99.90
23609;DHT22;11982;50.810;4.442;2022-09-25T18:13:06;14.20;99.90
23609;DHT22;11982;50.810;4.442;2022-09-25T18:15:35;14.10;99.90
23609;DHT22;11982;50.810;4.442;2022-09-25T18:18:02;14.00;99.90
23609;DHT22;11982;50.810;4.442;2022-09-25T18:20:27;14.00;99.90
23609;DHT22;11982;50.810;4.442;2022-09-25T18:23:11;13.70;99.90
23609;DHT22;11982;50.810;4.442;2022-09-25T18:25:39;13.80;99.90
23609;DHT22;11982;50.810;4.442;2022-09-25T18:28:05;13.80;99.90
23609;DHT22;11982;50.810;4.442;2022-09-25T18:30:31;13.70;99.90
23609;DHT22;11982;50.810;4.442;2022-09-25T18:32:57;13.40;99.90
23609;DHT22;11982;50.810;4.442;2022-09-25T18:35:22;13.40;99.90
23609;DHT22;11982;50.810;4.442;2022-09-25T18:37:48;13.30;99.90